Time;durP1;ratioP1;P1;durP2;ratioP2;P2;SDS_P1;SDS_P2;PMS_P1;PMS_P2;Temp;Humidity;BMP_temperature;BMP_pressure;BME280_temperature;BME280_humidity;BME280_pressure;Samples;Min_cycle;Max_cycle;Signal;HPM_P1;HPM_P2
2021/05/17 00:02:15;;;;;;;0.33;0.10;;;;;;;;;;5069982;28;20722;-76
2021/05/17 00:04:41;;;;;;;0.47;0.00;;;;;;;;;;5069494;28;20296;-75
2021/05/17 00:07:09;;;;;;;0.53;0.30;;;;;;;;;;5071071;28;20229;-75
2021/05/17 00:09:35;;;;;;;0.20;0.20;;;;;;;;;;5071253;28;20279;-75
2021/05/17 00:12:03;;;;;;;0.30;0.23;;;;;;;;;;5069740;28;20281;-75
2021/05/17 00:14:30;;;;;;;0.27;0.10;;;;;;;;;;5068706;28;20747;-76
2021/05/17 00:16:56;;;;;;;0.10;0.10;;;;;;;;;;5070629;28;20240;-75
2021/05/17 00:19:23;;;;;;;0.10;0.10;;;;;;;;;;5069736;28;20238;-75
2021/05/17 00:21:50;;;;;;;0.10;0.10;;;;;;;;;;5070506;28;20308;-75
2021/05/17 00:24:17;;;;;;;0.40;0.20;;;;;;;;;;5069655;28;20292;-75
2021/05/17 00:26:44;;;;;;;0.10;0.10;;;;;;;;;;5070693;28;20221;-75
2021/05/17 00:29:10;;;;;;;1.50;0.47;;;;;;;;;;5070813;28;20265;-76
2021/05/17 00:31:37;;;;;;;0.10;0.10;;;;;;;;;;5070986;28;20240;-76
2021/05/17 00:34:05;;;;;;;0.20;0.20;;;;;;;;;;5070732;28;20239;-76
2021/05/17 00:36:31;;;;;;;0.70;0.30;;;;;;;;;;5070794;28;20201;-76
2021/05/17 00:38:59;;;;;;;0.13;0.10;;;;;;;;;;5069332;28;20775;-76
2021/05/17 00:41:26;;;;;;;0.10;0.10;;;;;;;;;;5069822;28;20205;-76
2021/05/17 00:43:53;;;;;;;0.10;0.10;;;;;;;;;;5071234;28;20197;-76
2021/05/17 00:46:20;;;;;;;0.20;0.13;;;;;;;;;;5070614;28;20293;-75
2021/05/17 00:48:47;;;;;;;0.20;0.20;;;;;;;;;;5069925;28;20264;-76
2021/05/17 00:51:13;;;;;;;0.10;0.10;;;;;;;;;;5076122;28;20285;-75
2021/05/17 00:53:40;;;;;;;0.13;0.13;;;;;;;;;;5070401;28;20243;-75
2021/05/17 00:56:07;;;;;;;0.40;0.30;;;;;;;;;;5070128;28;20288;-76
2021/05/17 00:58:33;;;;;;;0.30;0.30;;;;;;;;;;5068960;28;20231;-76
2021/05/17 01:34:14;;;;;;;0.10;0.10;;;;;;;-143.37;100.00;65745.06;5107590;27;20564;-76
2021/05/17 01:36:44;;;;;;;0.27;0.20;;;;;;;-143.37;100.00;65745.06;5107266;28;20672;-76
2021/05/17 01:39:10;;;;;;;0.10;0.10;;;;;;;-143.37;100.00;65745.06;5086364;28;20293;-76
2021/05/17 01:41:38;;;;;;;0.13;0.13;;;;;;;-143.37;100.00;65745.06;5086218;28;20295;-76
2021/05/17 01:44:10;;;;;;;0.00;0.00;;;;;;;-143.37;100.00;65745.06;5077885;28;20231;-76
2021/05/17 01:46:38;;;;;;;0.23;0.20;;;;;;;-143.37;100.00;65745.06;5087003;28;20208;-77
2021/05/17 01:49:05;;;;;;;0.20;0.20;;;;;;;-143.37;100.00;65745.06;5079787;28;20762;-76
2021/05/17 01:51:32;;;;;;;0.97;0.47;;;;;;;-143.37;100.00;65745.06;5090585;28;20236;-77
2021/05/17 01:53:59;;;;;;;0.50;0.30;;;;;;;-143.37;100.00;65745.06;5087039;28;20264;-77
2021/05/17 01:56:26;;;;;;;0.30;0.30;;;;;;;-143.37;100.00;65745.06;5087044;28;20208;-76
2021/05/17 01:58:53;;;;;;;0.50;0.10;;;;;;;-143.37;100.00;65745.06;5068702;28;20263;-75
2021/05/17 02:01:20;;;;;;;0.30;0.30;;;;;;;-143.37;100.00;65745.06;5087672;28;20223;-76
2021/05/17 02:03:48;;;;;;;0.20;0.20;;;;;;;-143.37;100.00;65745.06;5086364;28;20635;-75
2021/05/17 02:06:17;;;;;;;0.20;0.20;;;;;;;-143.37;100.00;65745.06;5085641;28;20228;-76
2021/05/17 02:08:50;;;;;;;0.50;0.27;;;;;;;-143.37;100.00;65745.06;5085854;28;20347;-76
2021/05/17 02:11:19;;;;;;;0.10;0.10;;;;;;;-143.37;100.00;65745.06;5087716;28;20205;-76
2021/05/17 02:13:46;;;;;;;0.40;0.20;;;;;;;-143.37;100.00;65745.06;5086293;28;20880;-77
2021/05/17 02:16:14;;;;;;;0.10;0.10;;;;;;;-143.37;100.00;65745.06;5085843;28;20212;-77
2021/05/17 02:18:43;;;;;;;0.20;0.20;;;;;;;-143.37;100.00;65745.06;5085017;28;20225;-75
2021/05/17 02:21:12;;;;;;;0.10;0.10;;;;;;;-143.37;100.00;65745.06;5086403;28;20208;-75
2021/05/17 02:23:39;;;;;;;0.40;0.30;;;;;;;-143.37;100.00;65745.06;5086461;28;20274;-76
2021/05/17 02:26:07;;;;;;;0.17;0.17;;;;;;;-143.37;100.00;65745.06;5078285;28;20815;-75
2021/05/17 02:28:38;;;;;;;0.30;0.27;;;;;;;-143.37;100.00;65745.06;5086352;28;20235;-75
2021/05/17 02:31:06;;;;;;;0.10;0.10;;;;;;;-143.37;100.00;65745.06;5085137;28;20662;-76
2021/05/17 02:33:33;;;;;;;0.13;0.13;;;;;;;-143.37;100.00;65745.06;5086136;28;20220;-76
2021/05/17 02:36:00;;;;;;;0.10;0.10;;;;;;;-143.37;100.00;65745.06;5085814;28;20248;-75
2021/05/17 02:38:27;;;;;;;0.40;0.30;;;;;;;-143.37;100.00;65745.06;5086122;28;20224;-75
2021/05/17 02:40:56;;;;;;;0.63;0.50;;;;;;;-143.37;100.00;65745.06;5068075;28;20284;-75
2021/05/17 02:43:23;;;;;;;0.10;0.10;;;;;;;-143.37;100.00;65745.06;5085227;28;20232;-76
2021/05/17 02:45:51;;;;;;;0.57;0.50;;;;;;;-143.37;100.00;65745.06;5072004;28;20350;-76
2021/05/17 02:48:18;;;;;;;0.20;0.20;;;;;;;-143.37;100.00;65745.06;5054884;28;20233;-76
2021/05/17 02:50:47;;;;;;;0.20;0.20;;;;;;;-143.37;100.00;65745.06;5071202;28;20255;-76
2021/05/17 02:53:38;;;;;;;0.10;0.10;;;;;;;-143.37;100.00;65745.06;5072384;28;20781;-76
2021/05/17 02:56:11;;;;;;;0.20;0.20;;;;;;;-143.37;100.00;65745.06;5064168;28;20205;-77
2021/05/17 02:58:40;;;;;;;0.23;0.23;;;;;;;-143.37;100.00;65745.06;5071205;28;20260;-78
2021/05/17 03:01:21;;;;;;;0.20;0.20;;;;;;;-143.37;100.00;65745.06;5063473;28;20288;-76
2021/05/17 03:03:51;;;;;;;0.13;0.13;;;;;;;-143.37;100.00;65745.06;5072108;28;20677;-76
2021/05/17 03:06:21;;;;;;;0.10;0.10;;;;;;;-143.37;100.00;65745.06;5071080;28;20205;-76
2021/05/17 03:08:54;;;;;;;0.27;0.27;;;;;;;-143.37;100.00;65745.06;5072624;28;20286;-76
2021/05/17 03:11:22;;;;;;;0.23;0.20;;;;;;;-143.37;100.00;65745.06;5071055;28;20734;-76
2021/05/17 03:13:51;;;;;;;0.30;0.30;;;;;;;-143.37;100.00;65745.06;5071991;28;20572;-77
2021/05/17 03:16:22;;;;;;;0.10;0.10;;;;;;;-143.37;100.00;65745.06;5071721;28;20577;-76
2021/05/17 03:18:50;;;;;;;0.20;0.20;;;;;;;-143.37;100.00;65745.06;5071396;28;20307;-75
2021/05/17 03:21:26;;;;;;;0.10;0.10;;;;;;;-143.37;100.00;65745.06;5072029;28;20248;-75
2021/05/17 03:23:55;;;;;;;0.10;0.10;;;;;;;-143.37;100.00;65745.06;5071889;28;20200;-75
2021/05/17 03:26:24;;;;;;;0.23;0.20;;;;;;;-143.37;100.00;65745.06;5071673;28;20275;-76
2021/05/17 03:28:50;;;;;;;0.27;0.27;;;;;;;-143.37;100.00;65745.06;5054225;28;20253;-75
2021/05/17 03:31:18;;;;;;;0.20;0.20;;;;;;;-143.37;100.00;65745.06;5070520;28;20244;-76
2021/05/17 03:33:45;;;;;;;1.90;0.20;;;;;;;-143.37;100.00;65745.06;5070378;28;20260;-75
2021/05/17 03:36:11;;;;;;;0.50;0.37;;;;;;;-143.37;100.00;65745.06;5071427;28;20689;-75
2021/05/17 03:38:38;;;;;;;0.10;0.10;;;;;;;-143.37;100.00;65745.06;5071495;28;20308;-76
2021/05/17 03:41:06;;;;;;;0.20;0.20;;;;;;;-143.37;100.00;65745.06;5070286;28;20239;-76
2021/05/17 03:43:33;;;;;;;0.73;0.10;;;;;;;-143.37;100.00;65745.06;5053611;28;20610;-76
2021/05/17 03:46:00;;;;;;;0.10;0.10;;;;;;;-143.37;100.00;65745.06;5072755;28;20244;-77
2021/05/17 03:48:26;;;;;;;0.10;0.10;;;;;;;-143.37;100.00;65745.06;5073056;28;20253;-78
2021/05/17 03:50:53;;;;;;;0.07;0.07;;;;;;;-143.37;100.00;65745.06;5077288;28;20247;-76
2021/05/17 03:53:20;;;;;;;0.30;0.30;;;;;;;-143.37;100.00;65745.06;5069727;28;20284;-74
2021/05/17 03:55:46;;;;;;;0.00;0.00;;;;;;;-143.37;100.00;65745.06;5052146;28;20274;-76
2021/05/17 03:58:14;;;;;;;0.20;0.20;;;;;;;-143.37;100.00;65745.06;5070921;28;20259;-76
2021/05/17 04:00:40;;;;;;;0.10;0.10;;;;;;;-143.37;100.00;65745.06;5069653;28;20730;-76
2021/05/17 04:03:15;;;;;;;0.27;0.20;;;;;;;-143.37;100.00;65745.06;5070077;28;20266;-76
2021/05/17 04:13:59;;;;;;;0.10;0.10;;;;;;;-143.37;100.00;65745.06;5069769;28;20729;-76
2021/05/17 04:16:26;;;;;;;0.20;0.20;;;;;;;-143.37;100.00;65745.06;5052870;28;20297;-76
2021/05/17 04:18:52;;;;;;;0.10;0.10;;;;;;;-143.37;100.00;65745.06;5052783;28;20249;-76
2021/05/17 04:21:19;;;;;;;0.47;0.13;;;;;;;-143.37;100.00;65745.06;5070504;28;20205;-76
2021/05/17 04:23:45;;;;;;;0.33;0.30;;;;;;;-143.37;100.00;65745.06;5069350;28;20207;-76
2021/05/17 04:26:12;;;;;;;0.77;0.30;;;;;;;-143.37;100.00;65745.06;5070749;28;20205;-76
2021/05/17 04:28:39;;;;;;;0.10;0.10;;;;;;;-143.37;100.00;65745.06;5069476;28;20603;-76
2021/05/17 04:31:05;;;;;;;1.00;0.20;;;;;;;-143.37;100.00;65745.06;5062128;28;20240;-76
2021/05/17 04:33:32;;;;;;;0.00;0.00;;;;;;;-143.37;100.00;65745.06;5070948;28;20225;-77
2021/05/17 04:35:58;;;;;;;0.10;0.10;;;;;;;-143.37;100.00;65745.06;5069299;28;20252;-77
2021/05/17 04:38:25;;;;;;;0.10;0.10;;;;;;;-143.37;100.00;65745.06;5069647;28;20697;-77
2021/05/17 04:40:51;;;;;;;0.30;0.30;;;;;;;-143.37;100.00;65745.06;5069390;28;20241;-75
2021/05/17 04:43:18;;;;;;;0.20;0.20;;;;;;;-143.37;100.00;65745.06;5070624;28;20229;-76
2021/05/17 04:45:45;;;;;;;0.10;0.10;;;;;;;-143.37;100.00;65745.06;5068742;28;20247;-76
2021/05/17 04:48:12;;;;;;;0.17;0.17;;;;;;;-143.37;100.00;65745.06;5070056;28;20233;-77
2021/05/17 04:50:38;;;;;;;0.73;0.27;;;;;;;-143.37;100.00;65745.06;5069811;28;20205;-76
2021/05/17 04:53:05;;;;;;;0.10;0.10;;;;;;;-143.37;100.00;65745.06;5064874;28;20225;-76
2021/05/17 04:55:31;;;;;;;0.20;0.20;;;;;;;-143.37;100.00;65745.06;5049992;28;20237;-76
2021/05/17 04:57:58;;;;;;;0.10;0.10;;;;;;;-143.37;100.00;65745.06;5048320;28;20249;-75
2021/05/17 05:00:25;;;;;;;0.03;0.00;;;;;;;-143.37;100.00;65745.06;5049490;28;20289;-77
2021/05/17 05:02:51;;;;;;;0.10;0.10;;;;;;;-143.37;100.00;65745.06;5067754;28;20201;-78
2021/05/17 05:05:18;;;;;;;0.47;0.30;;;;;;;-143.37;100.00;65745.06;5069559;28;20255;-76
2021/05/17 05:07:46;;;;;;;0.20;0.20;;;;;;;-143.37;100.00;65745.06;5079142;28;20228;-77
2021/05/17 05:10:12;;;;;;;1.17;0.50;;;;;;;-143.37;100.00;65745.06;5066817;28;20217;-76
2021/05/17 05:12:39;;;;;;;2.53;0.30;;;;;;;-143.37;100.00;65745.06;5069704;28;20201;-77
2021/05/17 05:15:06;;;;;;;0.27;0.17;;;;;;;-143.37;100.00;65745.06;5065311;28;20224;-77
2021/05/17 05:17:33;;;;;;;0.20;0.20;;;;;;;-143.37;100.00;65745.06;5070123;28;20256;-78
2021/05/17 05:19:59;;;;;;;0.40;0.40;;;;;;;-143.37;100.00;65745.06;5071487;28;20221;-78
2021/05/17 05:22:26;;;;;;;0.20;0.10;;;;;;;-143.37;100.00;65745.06;5071003;28;20259;-77
2021/05/17 05:24:55;;;;;;;2.63;0.40;;;;;;;-143.37;100.00;65745.06;5068268;28;20288;-77
2021/05/17 05:33:05;;;;;;;0.10;0.10;;;;;;;-143.37;100.00;65745.06;5049810;28;20247;-77
2021/05/17 05:35:33;;;;;;;0.00;0.00;;;;;;;-143.37;100.00;65745.06;5069545;28;20895;-76
2021/05/17 05:37:59;;;;;;;0.10;0.10;;;;;;;-143.37;100.00;65745.06;5069226;28;20229;-76
2021/05/17 05:40:26;;;;;;;0.53;0.10;;;;;;;-143.37;100.00;65745.06;5069133;28;20244;-76
2021/05/17 05:42:52;;;;;;;0.13;0.13;;;;;;;-143.37;100.00;65745.06;5069010;28;20693;-76
2021/05/17 05:45:25;;;;;;;0.00;0.00;;;;;;;-143.37;100.00;65745.06;5068995;28;20735;-76
2021/05/17 05:47:51;;;;;;;0.77;0.20;;;;;;;-143.37;100.00;65745.06;5068082;28;20285;-76
2021/05/17 05:50:18;;;;;;;0.20;0.20;;;;;;;-143.37;100.00;65745.06;5069835;28;20236;-76
2021/05/17 05:52:44;;;;;;;0.20;0.10;;;;;;;-143.37;100.00;65745.06;5051788;28;20297;-77
2021/05/17 05:55:12;;;;;;;0.20;0.20;;;;;;;-143.37;100.00;65745.06;5067895;28;20220;-77
2021/05/17 05:57:42;;;;;;;0.10;0.10;;;;;;;-143.37;100.00;65745.06;5069434;28;20245;-77
2021/05/17 06:00:13;;;;;;;0.17;0.17;;;;;;;-143.37;100.00;65745.06;5069448;28;20705;-77
2021/05/17 06:02:40;;;;;;;0.70;0.40;;;;;;;-143.37;100.00;65745.06;5068419;28;20201;-76
2021/05/17 06:05:08;;;;;;;0.10;0.10;;;;;;;-143.37;100.00;65745.06;5070373;28;20224;-77
2021/05/17 06:07:34;;;;;;;0.20;0.20;;;;;;;-143.37;100.00;65745.06;5090563;28;20225;-76
2021/05/17 06:10:04;;;;;;;0.00;0.00;;;;;;;-143.37;100.00;65745.06;5087717;28;20202;-77
2021/05/17 06:12:31;;;;;;;0.32;0.10;;;;;;;-143.37;100.00;65745.06;5078137;28;20209;-78
2021/05/17 06:15:00;;;;;;;0.00;0.00;;;;;;;-143.37;100.00;65745.06;5070801;28;20236;-78
2021/05/17 06:17:27;;;;;;;0.32;0.15;;;;;;;-143.37;100.00;65745.06;5072843;28;20257;-77
2021/05/17 06:19:55;;;;;;;0.32;0.15;;;;;;;-143.37;100.00;65745.06;5074602;28;20296;-78
2021/05/17 06:22:25;;;;;;;0.03;0.03;;;;;;;-143.37;100.00;65745.06;5077534;28;20282;-78
2021/05/17 06:24:57;;;;;;;0.10;0.10;;;;;;;-143.37;100.00;65745.06;5064645;28;20201;-76
2021/05/17 06:27:24;;;;;;;1.30;0.57;;;;;;;-143.37;100.00;65745.06;5073236;28;20228;-72
2021/05/17 06:29:54;;;;;;;1.08;0.13;;;;;;;-143.37;100.00;65745.06;5072902;28;20630;-72
2021/05/17 06:32:22;;;;;;;0.15;0.10;;;;;;;-143.37;100.00;65745.06;5072840;28;20216;-73
2021/05/17 06:34:50;;;;;;;0.17;0.10;;;;;;;-143.37;100.00;65745.06;5070991;28;21063;-73
2021/05/17 06:37:16;;;;;;;0.37;0.20;;;;;;;-143.37;100.00;65745.06;5072733;28;20668;-73
2021/05/17 06:39:43;;;;;;;0.10;0.10;;;;;;;-143.37;100.00;65745.06;5072426;28;20205;-72
2021/05/17 06:42:10;;;;;;;0.20;0.20;;;;;;;-143.37;100.00;65745.06;5071464;28;20209;-72
2021/05/17 06:44:37;;;;;;;0.20;0.17;;;;;;;-143.37;100.00;65745.06;5072104;28;20251;-72
2021/05/17 06:47:06;;;;;;;0.10;0.10;;;;;;;-143.37;100.00;65745.06;5071902;28;20205;-73
2021/05/17 06:49:33;;;;;;;0.37;0.20;;;;;;;-143.37;100.00;65745.06;5059578;28;20215;-73
2021/05/17 06:52:00;;;;;;;0.03;0.03;;;;;;;-143.37;100.00;65745.06;5072697;28;20681;-73
2021/05/17 06:54:29;;;;;;;0.00;0.00;;;;;;;-143.37;100.00;65745.06;5070436;28;20221;-72
2021/05/17 06:59:46;;;;;;;1.17;0.10;;;;;;;-143.37;100.00;65745.06;5071996;28;20736;-72
2021/05/17 07:02:21;;;;;;;0.10;0.10;;;;;;;-143.37;100.00;65745.06;5070871;28;20295;-73
2021/05/17 07:04:49;;;;;;;0.10;0.10;;;;;;;-143.37;100.00;65745.06;5071724;28;20228;-72
2021/05/17 07:07:30;;;;;;;0.20;0.20;;;;;;;-143.37;100.00;65745.06;5070735;28;20708;-71
2021/05/17 07:12:42;;;;;;;0.17;0.10;;;;;;;-143.37;100.00;65745.06;5071581;28;20725;-71
2021/05/17 07:15:09;;;;;;;0.10;0.10;;;;;;;-143.37;100.00;65745.06;5070945;28;20263;-72
2021/05/17 07:17:36;;;;;;;0.17;0.10;;;;;;;-143.37;100.00;65745.06;5071489;28;20640;-71
2021/05/17 07:20:03;;;;;;;1.45;0.38;;;;;;;-143.37;100.00;65745.06;5093879;28;20223;-71
2021/05/17 07:25:15;;;;;;;0.05;0.05;;;;;;;-143.37;100.00;65745.06;5069896;28;20190;-70
2021/05/17 07:27:41;;;;;;;0.00;0.00;;;;;;;-143.37;100.00;65745.06;5069919;28;20350;-71
2021/05/17 07:30:08;;;;;;;0.55;0.17;;;;;;;-143.37;100.00;65745.06;5053554;28;20251;-71
2021/05/17 07:32:35;;;;;;;0.10;0.05;;;;;;;-143.37;100.00;65745.06;5071475;28;20217;-70
2021/05/17 07:35:27;;;;;;;0.43;0.32;;;;;;;-143.37;100.00;65745.06;5036755;28;20198;-71
2021/05/17 07:37:54;;;;;;;0.10;0.10;;;;;;;-143.37;100.00;65745.06;5071387;28;20274;-71
2021/05/17 07:40:21;;;;;;;0.20;0.10;;;;;;;-143.37;100.00;65745.06;5053525;28;20201;-70
2021/05/17 07:42:47;;;;;;;5.00;0.60;;;;;;;-143.37;100.00;65745.06;5070019;28;20240;-70
2021/05/17 07:45:15;;;;;;;0.00;0.00;;;;;;;-143.37;100.00;65745.06;5063305;28;20266;-70
2021/05/17 07:47:42;;;;;;;0.20;0.10;;;;;;;-143.37;100.00;65745.06;5072331;28;20225;-72
2021/05/17 07:50:09;;;;;;;0.10;0.10;;;;;;;-143.37;100.00;65745.06;5072909;28;20213;-69
2021/05/17 07:52:35;;;;;;;0.38;0.20;;;;;;;-143.37;100.00;65745.06;5070459;28;20795;-69
2021/05/17 07:55:03;;;;;;;0.00;0.00;;;;;;;-143.37;100.00;65745.06;5069465;28;20290;-73
2021/05/17 07:57:30;;;;;;;0.10;0.10;;;;;;;-143.37;100.00;65745.06;5071899;28;20294;-71
2021/05/17 07:59:56;;;;;;;0.10;0.10;;;;;;;-143.37;100.00;65745.06;5070492;28;20205;-71
2021/05/17 08:02:23;;;;;;;0.20;0.10;;;;;;;-143.37;100.00;65745.06;5071012;28;20248;-70
2021/05/17 08:04:51;;;;;;;0.20;0.07;;;;;;;-143.37;100.00;65745.06;5070378;28;20264;-70
2021/05/17 08:07:22;;;;;;;0.10;0.10;;;;;;;-143.37;100.00;65745.06;5070735;28;20325;-71
2021/05/17 08:09:50;;;;;;;0.87;0.30;;;;;;;-143.37;100.00;65745.06;5072501;28;20254;-71
2021/05/17 08:12:17;;;;;;;1.07;0.30;;;;;;;-143.37;100.00;65745.06;5072806;28;20209;-69
2021/05/17 08:14:43;;;;;;;0.10;0.10;;;;;;;-143.37;100.00;65745.06;5071429;28;20212;-71
2021/05/17 08:17:10;;;;;;;0.10;0.00;;;;;;;-143.37;100.00;65745.06;5072897;28;20299;-68
2021/05/17 08:19:37;;;;;;;0.03;0.00;;;;;;;-143.37;100.00;65745.06;5072548;28;20226;-69
2021/05/17 08:22:05;;;;;;;0.30;0.20;;;;;;;-143.37;100.00;65745.06;5072702;28;20201;-70
2021/05/17 08:24:31;;;;;;;0.00;0.00;;;;;;;-143.37;100.00;65745.06;5070988;28;20221;-71
2021/05/17 08:26:59;;;;;;;0.17;0.17;;;;;;;-143.37;100.00;65745.06;5054687;28;20216;-70
2021/05/17 08:29:32;;;;;;;0.00;0.00;;;;;;;-143.37;100.00;65745.06;5072608;28;20205;-70
2021/05/17 08:32:01;;;;;;;8.17;0.50;;;;;;;-143.37;100.00;65745.06;5072502;28;20220;-70
2021/05/17 08:34:28;;;;;;;0.20;0.20;;;;;;;-143.37;100.00;65745.06;5072296;28;20202;-71
2021/05/17 08:36:57;;;;;;;0.40;0.27;;;;;;;-143.37;100.00;65745.06;5072024;28;20235;-71
2021/05/17 08:39:25;;;;;;;1.33;0.20;;;;;;;-143.37;100.00;65745.06;5072052;28;20213;-71
2021/05/17 08:41:52;;;;;;;0.13;0.13;;;;;;;-143.37;100.00;65745.06;5070178;28;20700;-72
2021/05/17 08:44:18;;;;;;;0.10;0.10;;;;;;;-143.37;100.00;65745.06;5071859;28;20229;-71
2021/05/17 08:46:47;;;;;;;0.57;0.30;;;;;;;-143.37;100.00;65745.06;5072162;28;20201;-71
2021/05/17 08:49:18;;;;;;;0.10;0.10;;;;;;;-143.37;100.00;65745.06;5074082;28;20260;-70
2021/05/17 08:51:46;;;;;;;0.50;0.37;;;;;;;-143.37;100.00;65745.06;5091016;28;20208;-70
2021/05/17 08:54:13;;;;;;;0.15;0.10;;;;;;;-143.37;100.00;65745.06;5092068;28;20239;-71
2021/05/17 08:56:43;;;;;;;0.10;0.10;;;;;;;-143.37;100.00;65745.06;5091207;28;20200;-71
2021/05/17 08:59:15;;;;;;;1.17;0.35;;;;;;;-143.37;100.00;65745.06;5076303;28;20239;-71
2021/05/17 09:01:43;;;;;;;2.47;0.40;;;;;;;-143.37;100.00;65745.06;5070732;28;20609;-71
2021/05/17 09:04:11;;;;;;;0.43;0.30;;;;;;;-143.37;100.00;65745.06;5071782;28;20576;-71
2021/05/17 09:06:42;;;;;;;0.10;0.10;;;;;;;-143.37;100.00;65745.06;5071586;28;20767;-72
2021/05/17 09:09:29;;;;;;;0.10;0.10;;;;;;;-143.37;100.00;65745.06;5053968;28;20592;-73
2021/05/17 09:12:25;;;;;;;0.38;0.25;;;;;;;-143.37;100.00;65745.06;5070642;28;20242;-72
2021/05/17 09:14:55;;;;;;;0.00;0.00;;;;;;;-143.37;100.00;65745.06;5057719;28;20201;-71
2021/05/17 09:17:22;;;;;;;0.63;0.25;;;;;;;-143.37;100.00;65745.06;5070413;28;20744;-72
2021/05/17 09:19:49;;;;;;;0.20;0.10;;;;;;;-143.37;100.00;65745.06;5071721;28;20212;-70
2021/05/17 09:22:19;;;;;;;0.00;0.00;;;;;;;-143.37;100.00;65745.06;5071795;28;20210;-72
2021/05/17 09:24:48;;;;;;;0.05;0.05;;;;;;;-143.37;100.00;65745.06;5070231;28;20225;-71
2021/05/17 09:27:25;;;;;;;0.13;0.10;;;;;;;-143.37;100.00;65745.06;5070361;28;20287;-71
2021/05/17 09:29:54;;;;;;;0.10;0.10;;;;;;;-143.37;100.00;65745.06;5070728;28;20212;-71
2021/05/17 09:32:26;;;;;;;0.15;0.10;;;;;;;-143.37;100.00;65745.06;5071572;28;20266;-71
2021/05/17 09:35:01;;;;;;;0.30;0.30;;;;;;;-143.37;100.00;65745.06;5071387;28;20201;-71
2021/05/17 09:37:43;;;;;;;0.25;0.13;;;;;;;-143.37;100.00;65745.06;5071596;28;20233;-71
2021/05/17 09:40:30;;;;;;;0.10;0.10;;;;;;;-143.37;100.00;65745.06;5071406;28;20244;-72
2021/05/17 09:43:04;;;;;;;0.20;0.00;;;;;;;-143.37;100.00;65745.06;5071124;28;20630;-70
2021/05/17 09:45:46;;;;;;;0.10;0.10;;;;;;;-143.37;100.00;65745.06;5070253;28;20219;-70
2021/05/17 09:48:17;;;;;;;0.00;0.00;;;;;;;-143.37;100.00;65745.06;5071343;28;20229;-70
2021/05/17 09:50:58;;;;;;;0.87;0.20;;;;;;;-143.37;100.00;65745.06;5085274;28;20617;-69
2021/05/17 09:53:28;;;;;;;0.07;0.00;;;;;;;-143.37;100.00;65745.06;5090653;28;20211;-70
2021/05/17 09:55:54;;;;;;;1.60;0.30;;;;;;;-143.37;100.00;65745.06;5095373;28;20205;-71
2021/05/17 09:58:32;;;;;;;0.00;0.00;;;;;;;-143.37;100.00;65745.06;5085483;28;20229;-71
2021/05/17 10:01:11;;;;;;;0.10;0.10;;;;;;;-143.37;100.00;65745.06;5074607;28;20239;-71
2021/05/17 10:03:46;;;;;;;0.60;0.13;;;;;;;-143.37;100.00;65745.06;5075608;28;20229;-70
2021/05/17 10:06:24;;;;;;;0.13;0.10;;;;;;;-143.37;100.00;65745.06;5075184;28;20229;-71
2021/05/17 10:08:52;;;;;;;0.20;0.10;;;;;;;-143.37;100.00;65745.06;5075239;28;20284;-71
2021/05/17 10:11:20;;;;;;;0.30;0.10;;;;;;;-143.37;100.00;65745.06;5075197;28;20215;-71
2021/05/17 10:13:48;;;;;;;0.05;0.05;;;;;;;-143.37;100.00;65745.06;5073832;28;20241;-71
2021/05/17 10:16:17;;;;;;;0.43;0.10;;;;;;;-143.37;100.00;65745.06;5074739;28;20239;-71
2021/05/17 10:18:46;;;;;;;0.40;0.40;;;;;;;-143.37;100.00;65745.06;5074807;28;20283;-70
2021/05/17 10:21:17;;;;;;;0.20;0.15;;;;;;;-143.37;100.00;65745.06;5074633;28;20213;-69
2021/05/17 10:23:46;;;;;;;0.20;0.20;;;;;;;-143.37;100.00;65745.06;5073393;28;20686;-71
2021/05/17 10:26:15;;;;;;;0.50;0.30;;;;;;;-143.37;100.00;65745.06;5074670;28;20647;-72
2021/05/17 10:28:48;;;;;;;0.03;0.03;;;;;;;-143.37;100.00;65745.06;5073658;28;20264;-70
2021/05/17 10:31:17;;;;;;;0.00;0.00;;;;;;;-143.37;100.00;65745.06;5073723;28;20208;-69
2021/05/17 10:34:05;;;;;;;0.00;0.00;;;;;;;-143.37;100.00;65745.06;5073295;28;20312;-71
2021/05/17 10:36:54;;;;;;;0.65;0.20;;;;;;;-143.37;100.00;65745.06;5074418;28;20236;-71
2021/05/17 10:39:30;;;;;;;0.10;0.10;;;;;;;-143.37;100.00;65745.06;5074586;28;20273;-70
2021/05/17 10:48:23;;;;;;;0.10;0.10;;;;;;;-143.37;100.00;65745.06;5047496;28;20221;-71
2021/05/17 10:51:07;;;;;;;1.20;0.20;;;;;;;-143.37;100.00;65745.06;5070642;28;20213;-70
2021/05/17 10:53:54;;;;;;;0.10;0.10;;;;;;;-143.37;100.00;65745.06;5071228;28;20250;-71
2021/05/17 11:02:34;;;;;;;0.40;0.28;;;;;;;-143.37;100.00;65745.06;5071601;28;20247;-70
2021/05/17 11:05:14;;;;;;;0.52;0.20;;;;;;;-143.37;100.00;65745.06;5053640;28;20259;-72
2021/05/17 11:07:55;;;;;;;0.00;0.00;;;;;;;-143.37;100.00;65745.06;5074730;28;20247;-79
2021/05/17 11:10:32;;;;;;;0.32;0.20;;;;;;;-143.37;100.00;65745.06;5075136;28;20204;-77
2021/05/17 11:13:18;;;;;;;0.90;0.10;;;;;;;-143.37;100.00;65745.06;5078104;28;20620;-79
2021/05/17 11:15:56;;;;;;;0.00;0.00;;;;;;;-143.37;100.00;65745.06;5075062;28;20288;-74
2021/05/17 11:18:56;;;;;;;0.55;0.45;;;;;;;-143.37;100.00;65745.06;5074592;28;20646;-77
2021/05/17 11:21:28;;;;;;;0.00;0.00;;;;;;;-143.37;100.00;65745.06;5030265;28;20267;-79
2021/05/17 11:23:58;;;;;;;0.35;0.20;;;;;;;-143.37;100.00;65745.06;5074278;28;20670;-76
2021/05/17 11:26:27;;;;;;;0.03;0.03;;;;;;;-143.37;100.00;65745.06;5073556;28;20319;-78
2021/05/17 11:28:55;;;;;;;0.30;0.10;;;;;;;-143.37;100.00;65745.06;5074039;28;20221;-78
2021/05/17 11:31:33;;;;;;;0.47;0.20;;;;;;;-143.37;100.00;65745.06;5076151;28;20193;-78
2021/05/17 11:34:06;;;;;;;0.00;0.00;;;;;;;-143.37;100.00;65745.06;5078534;28;20259;-76
2021/05/17 11:36:47;;;;;;;0.20;0.20;;;;;;;-143.37;100.00;65745.06;5073462;28;20246;-76
2021/05/17 11:39:19;;;;;;;0.10;0.10;;;;;;;-143.37;100.00;65745.06;5072651;28;20636;-76
2021/05/17 11:41:59;;;;;;;0.98;0.10;;;;;;;-143.37;100.00;65745.06;5077567;28;20590;-76
2021/05/17 11:44:43;;;;;;;0.00;0.00;;;;;;;-143.37;100.00;65745.06;5076254;28;20263;-77
2021/05/17 11:47:13;;;;;;;0.10;0.10;;;;;;;-143.37;100.00;65745.06;5073338;28;20644;-76
2021/05/17 11:49:46;;;;;;;0.20;0.20;;;;;;;-143.37;100.00;65745.06;5073163;28;20250;-76
2021/05/17 11:52:17;;;;;;;0.08;0.03;;;;;;;-143.37;100.00;65745.06;5055690;28;20296;-77
2021/05/17 11:54:50;;;;;;;0.38;0.22;;;;;;;-143.37;100.00;65745.06;5072712;28;20205;-77
2021/05/17 11:57:19;;;;;;;0.30;0.13;;;;;;;-143.37;100.00;65745.06;5073055;28;20221;-77
2021/05/17 11:59:49;;;;;;;0.32;0.10;;;;;;;-143.37;100.00;65745.06;5088690;28;20231;-76
2021/05/17 12:02:16;;;;;;;1.90;0.13;;;;;;;-143.37;100.00;65745.06;5072247;28;20218;-76
2021/05/17 12:04:44;;;;;;;0.03;0.03;;;;;;;-143.37;100.00;65745.06;5072895;28;20695;-76
2021/05/17 12:07:12;;;;;;;0.20;0.20;;;;;;;-143.37;100.00;65745.06;5071567;28;20227;-76
2021/05/17 12:09:43;;;;;;;0.10;0.10;;;;;;;-143.37;100.00;65745.06;5071557;28;20209;-76
2021/05/17 12:12:15;;;;;;;0.10;0.10;;;;;;;-143.37;100.00;65745.06;5072735;28;20685;-76
2021/05/17 12:14:44;;;;;;;0.20;0.20;;;;;;;-143.37;100.00;65745.06;5055041;28;20295;-76
2021/05/17 12:17:16;;;;;;;0.07;0.07;;;;;;;-143.37;100.00;65745.06;5071921;28;20237;-76
2021/05/17 12:19:48;;;;;;;0.60;0.30;;;;;;;-143.37;100.00;65745.06;5072808;28;20205;-77
2021/05/17 12:22:24;;;;;;;0.13;0.10;;;;;;;-143.37;100.00;65745.06;5072880;28;20208;-76
2021/05/17 12:24:55;;;;;;;0.10;0.10;;;;;;;-143.37;100.00;65745.06;5073054;28;20205;-76
2021/05/17 12:27:23;;;;;;;0.23;0.23;;;;;;;-143.37;100.00;65745.06;5071459;28;20697;-75
2021/05/17 12:29:49;;;;;;;0.97;0.30;;;;;;;-143.37;100.00;65745.06;5071122;28;20665;-76
2021/05/17 12:32:16;;;;;;;0.10;0.10;;;;;;;-143.37;100.00;65745.06;5074473;28;20239;-77
2021/05/17 12:34:57;;;;;;;0.10;0.10;;;;;;;-143.37;100.00;65745.06;5077560;28;20205;-76
2021/05/17 12:37:31;;;;;;;0.40;0.20;;;;;;;-143.37;100.00;65745.06;5076947;28;20235;-76
2021/05/17 12:40:19;;;;;;;0.20;0.20;;;;;;;-143.37;100.00;65745.06;5076869;28;20308;-79
2021/05/17 12:42:58;;;;;;;0.97;0.20;;;;;;;-143.37;100.00;65745.06;5077606;28;20205;-79
2021/05/17 12:45:25;;;;;;;0.10;0.10;;;;;;;-143.37;100.00;65745.06;5060665;28;20229;-77